createdAt,value
2019-02-05T00:02:26.620Z,22.27
2019-02-05T00:05:00.194Z,20.33
2019-02-05T00:07:31.723Z,17.42
2019-02-05T00:10:06.329Z,14.90
2019-02-05T00:12:40.096Z,14.30
2019-02-05T00:15:13.130Z,14.97
2019-02-05T00:17:46.119Z,21.23
2019-02-05T00:20:18.062Z,18.93
2019-02-05T00:22:49.367Z,17.73
2019-02-05T00:25:20.609Z,19.02
2019-02-05T00:27:54.236Z,16.97
2019-02-05T00:30:28.146Z,16.53
2019-02-05T00:33:03.701Z,22.73
2019-02-05T00:35:37.090Z,20.88
2019-02-05T00:38:10.205Z,20.23
2019-02-05T00:40:41.448Z,21.43
2019-02-05T00:43:15.148Z,18.87
2019-02-05T00:45:49.132Z,20.20
2019-02-05T00:48:23.193Z,20.40
2019-02-05T00:50:59.213Z,19.00
2019-02-05T00:53:31.169Z,20.57
2019-02-05T00:56:05.468Z,19.93
2019-02-05T00:58:38.393Z,22.70
2019-02-05T01:01:15.330Z,23.40
2019-02-05T01:03:46.436Z,23.77
2019-02-05T01:06:19.799Z,23.73
2019-02-05T01:08:51.161Z,18.82
2019-02-05T01:11:23.256Z,21.00
2019-02-05T01:13:58.104Z,26.50
2019-02-05T01:16:30.402Z,19.43
2019-02-05T01:19:03.411Z,24.20
2019-02-05T01:21:37.410Z,22.30
2019-02-05T01:24:12.985Z,21.50
2019-02-05T01:26:45.441Z,28.85
2019-02-05T01:29:19.437Z,25.80
2019-02-05T01:31:55.086Z,24.67
2019-02-05T01:34:27.413Z,20.60
2019-02-05T01:37:02.069Z,22.33
2019-02-05T01:39:36.054Z,22.22
2019-02-05T01:42:08.373Z,24.47
2019-02-05T01:44:42.392Z,34.03
2019-02-05T01:47:16.402Z,27.97
2019-02-05T01:49:50.517Z,26.25
2019-02-05T01:52:21.759Z,32.13
2019-02-05T01:54:55.444Z,32.03
2019-02-05T01:57:29.505Z,30.17
2019-02-05T02:00:04.080Z,32.30
2019-02-05T02:02:37.583Z,26.10
2019-02-05T02:05:10.392Z,25.87
2019-02-05T02:07:42.129Z,26.90
2019-02-05T02:10:16.568Z,22.10
2019-02-05T02:12:49.658Z,23.03
2019-02-05T02:15:23.660Z,31.55
2019-02-05T02:17:57.759Z,21.50
2019-02-05T02:20:31.347Z,28.70
2019-02-05T02:23:02.625Z,27.70
2019-02-05T02:25:33.925Z,25.43
2019-02-05T02:28:07.552Z,24.80
2019-02-05T02:30:41.676Z,21.17
2019-02-05T02:33:14.656Z,31.87
2019-02-05T02:35:49.813Z,28.80
2019-02-05T02:38:22.787Z,23.62
2019-02-05T02:40:54.053Z,30.30
2019-02-05T02:43:27.630Z,26.27
2019-02-05T02:46:01.740Z,22.13
2019-02-05T02:48:34.741Z,26.00
2019-02-05T02:51:06.869Z,26.47
2019-02-05T02:53:38.152Z,22.40
2019-02-05T02:56:10.816Z,20.07
2019-02-05T02:58:43.813Z,20.63
2019-02-05T03:01:15.894Z,19.62
2019-02-05T03:03:47.324Z,25.13
2019-02-05T03:06:20.804Z,17.67
2019-02-05T03:08:56.459Z,18.43
2019-02-05T03:11:28.819Z,18.85
2019-02-05T03:14:02.792Z,15.63
2019-02-05T03:16:34.953Z,16.27
2019-02-05T03:19:06.909Z,22.13
2019-02-05T03:21:40.173Z,22.83
2019-02-05T03:24:11.811Z,18.17
2019-02-05T03:26:45.903Z,20.90
2019-02-05T03:29:17.916Z,17.93
2019-02-05T03:31:51.104Z,18.20
2019-02-05T03:34:25.028Z,20.03
2019-02-05T03:36:58.965Z,16.47
2019-02-05T03:39:31.824Z,22.93
2019-02-05T03:42:04.090Z,23.13
2019-02-05T03:44:37.883Z,16.17
2019-02-05T03:47:12.690Z,18.73
2019-02-05T03:49:46.208Z,22.20
2019-02-05T03:52:21.557Z,16.73
2019-02-05T03:55:44.280Z,16.90
2019-02-05T03:58:36.370Z,17.33
2019-02-05T04:01:43.525Z,18.20
2019-02-05T04:04:51.015Z,17.10
2019-02-05T04:08:17.164Z,17.43
2019-02-05T04:11:35.523Z,16.00
2019-02-05T04:15:01.394Z,14.50
2019-02-05T04:18:05.831Z,12.60
2019-02-05T04:21:14.888Z,15.43
2019-02-05T04:24:39.921Z,13.43
2019-02-05T04:27:47.718Z,13.93
2019-02-05T04:30:40.505Z,27.30
2019-02-05T04:34:04.473Z,18.67
2019-02-05T04:37:11.761Z,15.80
2019-02-05T04:40:16.903Z,18.90
2019-02-05T04:43:49.527Z,18.93
2019-02-05T04:46:36.188Z,17.10
2019-02-05T04:50:22.852Z,20.03
2019-02-05T04:53:42.374Z,14.83
2019-02-05T04:56:27.337Z,13.73
2019-02-05T04:59:33.797Z,13.60
2019-02-05T05:02:31.552Z,16.57
2019-02-05T05:05:37.004Z,15.43
2019-02-05T05:08:37.650Z,14.53
2019-02-05T05:11:10.506Z,14.27
2019-02-05T05:13:42.388Z,23.80
2019-02-05T05:16:15.389Z,13.90
2019-02-05T05:18:46.656Z,15.27
2019-02-05T05:21:20.748Z,15.03
2019-02-05T05:23:54.352Z,14.28
2019-02-05T05:26:25.617Z,18.27
2019-02-05T05:28:57.464Z,16.60
2019-02-05T05:31:31.530Z,14.60
2019-02-05T05:34:07.044Z,12.85
2019-02-05T05:36:49.394Z,12.50
2019-02-05T05:39:22.540Z,16.90
2019-02-05T05:41:56.500Z,17.70
2019-02-05T05:44:32.021Z,17.43
2019-02-05T05:47:04.526Z,17.10
2019-02-05T05:49:35.912Z,19.93
2019-02-05T05:52:09.582Z,17.30
2019-02-05T05:54:43.613Z,15.83
2019-02-05T05:57:18.807Z,21.70
2019-02-05T05:59:52.076Z,16.62
2019-02-05T06:02:24.609Z,17.82
2019-02-05T06:04:56.283Z,18.73
2019-02-05T06:07:27.537Z,19.57
2019-02-05T06:10:00.552Z,24.00
2019-02-05T06:12:32.092Z,26.35
2019-02-05T06:15:07.613Z,31.40
2019-02-05T06:17:40.810Z,44.70
2019-02-05T06:20:16.143Z,24.80
2019-02-05T06:22:48.068Z,16.77
2019-02-05T06:25:19.352Z,19.10
2019-02-05T06:27:53.002Z,18.40
2019-02-05T06:30:26.750Z,15.83
2019-02-05T06:33:00.753Z,19.50
2019-02-05T06:35:32.150Z,12.47
2019-02-05T06:38:05.699Z,22.58
2019-02-05T06:40:37.804Z,20.00
2019-02-05T06:43:10.858Z,14.83
2019-02-05T06:45:44.967Z,17.83
2019-02-05T06:48:18.784Z,16.83
2019-02-05T06:50:52.684Z,28.23
2019-02-05T06:53:28.287Z,26.80
2019-02-05T06:56:02.235Z,22.67
2019-02-05T06:58:45.749Z,35.13
2019-02-05T07:01:07.792Z,74.30
2019-02-05T07:03:41.886Z,46.77
2019-02-05T07:06:15.720Z,71.43
2019-02-05T07:08:46.977Z,37.80
2019-02-05T07:11:18.245Z,28.23
2019-02-05T07:13:51.925Z,23.70
2019-02-05T07:16:25.364Z,24.13
2019-02-05T07:18:57.009Z,49.30
2019-02-05T07:21:30.988Z,29.40
2019-02-05T07:24:06.638Z,22.67
2019-02-05T07:26:38.132Z,17.33
2019-02-05T07:29:10.547Z,16.33
2019-02-05T07:31:43.574Z,19.97
2019-02-05T07:34:14.840Z,14.87
2019-02-05T07:36:47.186Z,15.03
2019-02-05T07:39:18.925Z,16.70
2019-02-05T07:41:53.098Z,19.27
2019-02-05T07:44:27.159Z,21.23
2019-02-05T07:47:01.256Z,16.73
2019-02-05T07:49:35.229Z,20.07
2019-02-05T07:52:06.606Z,19.43
2019-02-05T07:54:40.136Z,20.77
2019-02-05T07:57:14.124Z,20.23
2019-02-05T07:59:48.151Z,20.43
2019-02-05T08:02:22.286Z,16.60
2019-02-05T08:04:55.951Z,19.93
2019-02-05T08:07:28.810Z,15.77
2019-02-05T08:10:01.201Z,17.63
2019-02-05T08:12:32.641Z,15.73
2019-02-05T08:15:08.077Z,22.53
2019-02-05T08:17:41.235Z,26.07
2019-02-05T08:20:13.427Z,30.40
2019-02-05T08:22:47.187Z,15.67
2019-02-05T08:25:18.544Z,24.25
2019-02-05T08:27:49.914Z,17.33
2019-02-05T08:30:28.898Z,14.70
2019-02-05T08:33:00.182Z,14.27
2019-02-05T08:35:31.820Z,18.60
2019-02-05T08:38:05.715Z,21.23
2019-02-05T08:40:38.302Z,17.35
2019-02-05T08:43:10.401Z,18.57
2019-02-05T08:45:41.834Z,19.47
2019-02-05T08:48:15.433Z,16.00
2019-02-05T08:50:49.323Z,19.90
2019-02-05T08:53:20.585Z,22.00
2019-02-05T08:55:54.633Z,14.90
2019-02-05T08:58:31.044Z,16.57
2019-02-05T09:01:02.588Z,47.53
2019-02-05T09:03:35.453Z,33.30
2019-02-05T09:06:07.475Z,31.20
2019-02-05T09:08:41.459Z,37.73
2019-02-05T09:11:16.946Z,27.43
2019-02-05T09:13:49.371Z,17.63
2019-02-05T09:16:20.883Z,19.13
2019-02-05T09:18:54.522Z,18.53
2019-02-05T09:21:25.901Z,14.70
2019-02-05T09:23:59.573Z,13.07
2019-02-05T09:26:31.713Z,13.97
2019-02-05T09:29:04.532Z,16.47
2019-02-05T09:31:38.519Z,19.43
2019-02-05T09:34:11.521Z,13.73
2019-02-05T09:36:44.686Z,26.03
2019-02-05T09:39:16.559Z,13.88
2019-02-05T09:41:48.018Z,13.33
2019-02-05T09:44:19.415Z,13.20
2019-02-05T09:46:52.543Z,19.27
2019-02-05T09:49:28.241Z,16.67
2019-02-05T09:52:01.599Z,18.17
2019-02-05T09:54:35.566Z,22.40
2019-02-05T09:57:08.732Z,20.30
2019-02-05T09:59:45.378Z,16.40
2019-02-05T10:02:18.245Z,20.75
2019-02-05T10:04:50.644Z,18.87
2019-02-05T10:07:23.682Z,16.10
2019-02-05T10:09:57.739Z,20.00
2019-02-05T10:12:29.143Z,22.33
2019-02-05T10:15:00.413Z,20.23
2019-02-05T10:17:32.923Z,21.20
2019-02-05T10:20:05.809Z,15.67
2019-02-05T10:22:38.838Z,18.57
2019-02-05T10:25:13.247Z,19.67
2019-02-05T10:27:46.875Z,18.87
2019-02-05T10:30:29.005Z,22.13
2019-02-05T10:33:00.969Z,19.27
2019-02-05T10:35:32.240Z,18.10
2019-02-05T10:38:06.544Z,21.53
2019-02-05T10:40:39.782Z,19.77
2019-02-05T10:43:13.797Z,19.20
2019-02-05T10:45:47.908Z,20.53
2019-02-05T10:48:21.746Z,17.73
2019-02-05T10:50:55.867Z,19.03
2019-02-05T10:53:29.672Z,19.75
2019-02-05T10:56:01.117Z,21.00
2019-02-05T10:58:35.003Z,19.05
2019-02-05T11:01:09.140Z,22.47
2019-02-05T11:03:42.078Z,18.23
2019-02-05T11:06:14.044Z,18.60
2019-02-05T11:08:47.075Z,20.80
2019-02-05T11:11:20.977Z,25.47
2019-02-05T11:13:54.957Z,23.60
2019-02-05T11:16:28.982Z,20.67
2019-02-05T11:19:00.291Z,22.60
2019-02-05T11:21:32.642Z,25.77
2019-02-05T11:24:04.483Z,21.97
2019-02-05T11:26:36.808Z,20.20
2019-02-05T11:29:09.120Z,24.37
2019-02-05T11:31:40.987Z,23.20
2019-02-05T11:34:14.041Z,24.30
2019-02-05T11:36:45.395Z,28.60
2019-02-05T11:39:19.013Z,22.13
2019-02-05T11:41:50.255Z,25.33
2019-02-05T11:44:21.678Z,23.77
2019-02-05T11:46:55.038Z,24.17
2019-02-05T11:49:27.175Z,26.10
2019-02-05T11:52:00.159Z,45.20
2019-02-05T11:54:31.815Z,24.60
2019-02-05T11:57:05.260Z,32.97
2019-02-05T11:59:37.697Z,34.30
2019-02-05T12:02:10.356Z,22.30
2019-02-05T12:04:44.086Z,22.40
2019-02-05T12:07:15.341Z,23.60
2019-02-05T12:09:47.475Z,19.27
2019-02-05T12:12:19.309Z,25.07
2019-02-05T12:14:54.864Z,21.40
2019-02-05T12:17:28.359Z,16.33
2019-02-05T12:19:59.952Z,20.27
2019-02-05T12:22:32.149Z,17.43
2019-02-05T12:25:03.595Z,12.97
2019-02-05T12:27:36.442Z,20.63
2019-02-05T12:30:20.977Z,13.57
2019-02-05T12:32:54.322Z,15.23
2019-02-05T12:35:25.579Z,15.95
2019-02-05T12:37:57.776Z,22.40
2019-02-05T12:40:32.815Z,26.73
2019-02-05T12:43:04.985Z,20.23
2019-02-05T12:45:39.007Z,18.90
2019-02-05T12:48:11.467Z,19.50
2019-02-05T12:50:43.528Z,21.27
2019-02-05T12:53:16.473Z,24.70
2019-02-05T12:55:50.472Z,18.63
2019-02-05T12:58:24.505Z,24.37
2019-02-05T13:01:01.070Z,20.40
2019-02-05T13:03:31.855Z,24.10
2019-02-05T13:06:04.199Z,18.50
2019-02-05T13:08:37.448Z,18.93
2019-02-05T13:11:11.559Z,19.97
2019-02-05T13:13:43.417Z,20.10
2019-02-05T13:16:16.407Z,25.97
2019-02-05T13:18:51.959Z,21.50
2019-02-05T13:21:24.426Z,19.17
2019-02-05T13:23:55.845Z,20.70
2019-02-05T13:26:29.672Z,18.27
2019-02-05T13:29:03.614Z,20.50
2019-02-05T13:31:35.464Z,19.03
2019-02-05T13:34:08.662Z,20.57
2019-02-05T13:36:41.573Z,20.43
2019-02-05T13:39:13.700Z,19.23
2019-02-05T13:41:47.513Z,22.07
2019-02-05T13:44:18.742Z,28.17
2019-02-05T13:46:50.069Z,18.53
2019-02-05T13:49:23.595Z,18.52
2019-02-05T13:51:57.562Z,22.10
2019-02-05T13:54:33.107Z,24.03
2019-02-05T13:57:05.589Z,23.10
2019-02-05T13:59:38.747Z,21.60
2019-02-05T14:02:10.572Z,20.37
2019-02-05T14:04:41.855Z,23.87
2019-02-05T14:07:15.719Z,19.77
2019-02-05T14:09:47.034Z,29.77
2019-02-05T14:12:21.948Z,35.43
2019-02-05T14:14:54.711Z,24.67
2019-02-05T14:17:28.805Z,26.00
2019-02-05T14:20:01.710Z,24.10
2019-02-05T14:22:33.262Z,33.13
2019-02-05T14:25:08.884Z,29.70
2019-02-05T14:27:40.859Z,24.03
2019-02-05T14:30:17.514Z,24.37
2019-02-05T14:32:50.865Z,28.43
2019-02-05T14:35:24.426Z,25.37
2019-02-05T14:37:56.795Z,30.03
2019-02-05T14:40:30.932Z,26.40
2019-02-05T14:43:06.173Z,20.53
2019-02-05T14:45:38.454Z,24.35
2019-02-05T14:48:10.537Z,23.03
2019-02-05T14:50:44.622Z,20.65
2019-02-05T14:53:18.081Z,21.90
2019-02-05T14:55:51.912Z,25.30
2019-02-05T14:58:25.935Z,20.23
2019-02-05T15:00:59.933Z,25.40
2019-02-05T15:03:31.963Z,24.87
2019-02-05T15:06:05.194Z,23.92
2019-02-05T15:08:36.456Z,22.30
2019-02-05T15:11:10.280Z,28.23
2019-02-05T15:13:44.165Z,33.57
2019-02-05T15:16:17.040Z,33.53
2019-02-05T15:18:48.999Z,31.87
2019-02-05T15:21:23.018Z,28.77
2019-02-05T15:23:55.145Z,32.05
2019-02-05T15:26:28.033Z,31.10
2019-02-05T15:29:03.633Z,31.20
2019-02-05T15:31:35.047Z,29.37
2019-02-05T15:34:34.195Z,29.52
2019-02-05T15:37:08.272Z,30.17
2019-02-05T15:39:42.388Z,32.03
2019-02-05T15:42:16.204Z,32.63
2019-02-05T15:44:49.878Z,31.57
2019-02-05T15:47:23.474Z,129.25
2019-02-05T15:50:05.843Z,33.03
2019-02-05T15:52:32.020Z,29.83
2019-02-05T15:55:07.286Z,104.55
2019-02-05T15:57:39.780Z,32.23
2019-02-05T16:00:15.096Z,29.48
2019-02-05T16:02:47.456Z,63.78
2019-02-05T16:05:21.295Z,34.10
2019-02-05T16:07:55.444Z,36.30
2019-02-05T16:10:30.885Z,33.45
2019-02-05T16:13:03.463Z,43.50
2019-02-05T16:15:37.354Z,41.07
2019-02-05T16:18:11.496Z,37.90
2019-02-05T16:20:44.418Z,48.65
2019-02-05T16:23:17.422Z,50.23
2019-02-05T16:25:50.586Z,51.80
2019-02-05T16:28:21.870Z,45.57
2019-02-05T16:30:56.487Z,55.23
2019-02-05T16:33:28.641Z,44.90
2019-02-05T16:36:02.511Z,49.53
2019-02-05T16:38:35.529Z,49.57
2019-02-05T16:41:07.496Z,41.73
2019-02-05T16:43:39.410Z,42.03
2019-02-05T16:46:12.604Z,50.53
2019-02-05T16:48:44.415Z,45.77
2019-02-05T16:51:15.676Z,48.58
2019-02-05T16:53:46.995Z,49.77
2019-02-05T16:56:21.822Z,48.20
2019-02-05T16:58:54.441Z,43.87
2019-02-05T17:01:28.444Z,44.23
2019-02-05T17:04:00.507Z,47.43
2019-02-05T17:06:33.820Z,48.87
2019-02-05T17:09:14.939Z,44.40
2019-02-05T17:11:48.740Z,50.50
2019-02-05T17:14:21.674Z,45.87
2019-02-05T17:16:53.646Z,41.50
2019-02-05T17:19:26.273Z,42.27
2019-02-05T17:22:00.490Z,37.23
2019-02-05T17:24:32.256Z,79.17
2019-02-05T17:27:04.750Z,56.20
2019-02-05T17:29:36.820Z,73.63
2019-02-05T17:32:09.726Z,46.20
2019-02-05T17:34:41.648Z,50.30
2019-02-05T17:37:14.744Z,41.30
2019-02-05T17:39:48.833Z,44.03
2019-02-05T17:42:20.092Z,43.93
2019-02-05T17:44:53.587Z,47.70
2019-02-05T17:47:27.710Z,46.75
2019-02-05T17:50:01.718Z,48.43
2019-02-05T17:52:32.978Z,47.57
2019-02-05T17:55:07.907Z,51.83
2019-02-05T17:57:41.030Z,47.50
2019-02-05T18:00:16.354Z,54.67
2019-02-05T18:02:51.622Z,60.03
2019-02-05T18:05:22.735Z,54.23
2019-02-05T18:07:56.843Z,54.60
2019-02-05T18:10:30.819Z,59.77
2019-02-05T18:13:04.846Z,68.10
2019-02-05T18:15:38.810Z,60.83
2019-02-05T18:18:10.172Z,55.53
2019-02-05T18:20:43.921Z,57.80
2019-02-05T18:23:17.816Z,56.30
2019-02-05T18:25:53.248Z,60.13
2019-02-05T18:28:26.022Z,54.77
2019-02-05T18:31:01.670Z,58.73
2019-02-05T18:33:32.972Z,52.10
2019-02-05T18:36:08.544Z,57.37
2019-02-05T18:38:41.635Z,57.43
2019-02-05T18:41:15.240Z,57.93
2019-02-05T18:43:49.019Z,56.97
2019-02-05T18:46:22.914Z,59.37
2019-02-05T18:49:04.602Z,74.10
2019-02-05T18:51:31.014Z,64.40
2019-02-05T18:54:02.352Z,70.67
2019-02-05T18:56:35.970Z,60.23
2019-02-05T18:59:08.143Z,61.93
2019-02-05T19:01:41.076Z,62.67
2019-02-05T19:04:15.267Z,56.13
2019-02-05T19:06:48.964Z,68.17
2019-02-05T19:09:22.775Z,65.57
2019-02-05T19:11:54.044Z,68.83
2019-02-05T19:14:28.425Z,75.25
2019-02-05T19:17:01.415Z,65.40
2019-02-05T19:19:34.422Z,72.00
2019-02-05T19:22:06.394Z,66.97
2019-02-05T19:25:02.440Z,65.33
2019-02-05T19:27:38.052Z,68.73
2019-02-05T19:30:13.605Z,69.13
2019-02-05T19:32:46.579Z,69.47
2019-02-05T19:35:20.309Z,70.50
2019-02-05T19:37:54.276Z,58.07
2019-02-05T19:40:28.235Z,65.53
2019-02-05T19:43:05.899Z,64.22
2019-02-05T19:45:57.146Z,63.40
2019-02-05T19:48:49.050Z,62.20
2019-02-05T19:51:23.803Z,60.03
2019-02-05T19:53:57.728Z,66.80
2019-02-05T19:56:38.175Z,74.47
2019-02-05T19:59:05.455Z,68.70
2019-02-05T20:01:38.402Z,76.85
2019-02-05T20:04:12.504Z,67.63
2019-02-05T20:06:44.167Z,83.90
2019-02-05T20:09:17.330Z,66.90
2019-02-05T20:11:52.828Z,72.10
2019-02-05T20:14:25.348Z,70.70
2019-02-05T20:16:59.443Z,74.87
2019-02-05T20:19:31.395Z,76.77
2019-02-05T20:22:04.743Z,68.33
2019-02-05T20:24:38.468Z,76.93
2019-02-05T20:27:12.462Z,81.43
2019-02-05T20:29:48.073Z,91.03
2019-02-05T20:32:20.387Z,89.50
2019-02-05T20:34:54.328Z,104.63
2019-02-05T20:37:26.535Z,97.08
2019-02-05T20:39:59.534Z,111.07
2019-02-05T20:42:31.799Z,98.57
2019-02-05T20:45:03.558Z,107.50
2019-02-05T20:47:35.427Z,122.17
2019-02-05T20:50:12.712Z,106.33
2019-02-05T20:52:44.693Z,98.77
2019-02-05T20:55:16.778Z,112.37
2019-02-05T20:57:50.897Z,111.77
2019-02-05T21:00:24.695Z,114.62
2019-02-05T21:02:56.702Z,115.50
2019-02-05T21:05:29.647Z,110.65
2019-02-05T21:08:03.627Z,130.57
2019-02-05T21:10:35.575Z,119.03
2019-02-05T21:13:07.719Z,121.17
2019-02-05T21:15:39.168Z,127.90
2019-02-05T21:18:10.486Z,115.07
2019-02-05T21:20:43.643Z,112.37
2019-02-05T21:23:16.354Z,125.83
2019-02-05T21:25:48.971Z,123.93
2019-02-05T21:28:20.977Z,124.33
2019-02-05T21:30:53.813Z,121.17
2019-02-05T21:33:27.716Z,130.25
2019-02-05T21:36:03.259Z,123.60
2019-02-05T21:38:35.796Z,133.43
2019-02-05T21:41:10.083Z,114.00
2019-02-05T21:43:43.684Z,126.37
2019-02-05T21:46:17.710Z,112.70
2019-02-05T21:48:51.747Z,135.27
2019-02-05T21:51:23.031Z,116.28
2019-02-05T21:53:54.306Z,112.13
2019-02-05T21:56:27.759Z,123.67
2019-02-05T21:59:03.303Z,124.83
2019-02-05T22:01:35.954Z,119.20
2019-02-05T22:04:10.317Z,127.90
2019-02-05T22:06:43.681Z,123.53
2019-02-05T22:09:17.903Z,138.72
2019-02-05T22:11:51.881Z,123.67
2019-02-05T22:14:24.898Z,138.07
2019-02-05T22:17:00.462Z,114.47
2019-02-05T22:19:32.446Z,135.10
2019-02-05T22:22:03.929Z,121.67
2019-02-05T22:24:35.476Z,115.57
2019-02-05T22:27:08.963Z,135.83
2019-02-05T22:29:43.050Z,141.13
2019-02-05T22:32:16.899Z,120.03
2019-02-05T22:34:50.956Z,141.00
2019-02-05T22:37:25.087Z,137.97
2019-02-05T22:39:56.370Z,144.63
2019-02-05T22:42:27.702Z,134.47
2019-02-05T22:45:02.306Z,141.90
2019-02-05T22:47:36.197Z,136.90
2019-02-05T22:50:11.384Z,140.13
2019-02-05T22:52:46.298Z,142.43
2019-02-05T22:55:20.033Z,136.30
2019-02-05T22:57:54.027Z,134.57
2019-02-05T23:01:05.044Z,144.07
2019-02-05T23:03:43.556Z,136.70
2019-02-05T23:06:44.975Z,146.60
2019-02-05T23:09:29.436Z,145.23
2019-02-05T23:12:35.662Z,124.70
2019-02-05T23:15:21.388Z,130.17
2019-02-05T23:17:55.313Z,117.20
2019-02-05T23:20:26.878Z,116.93
2019-02-05T23:23:01.046Z,115.33
2019-02-05T23:25:32.519Z,129.57
2019-02-05T23:28:05.504Z,126.60
2019-02-05T23:30:39.412Z,131.87
2019-02-05T23:33:13.364Z,113.13
2019-02-05T23:35:45.095Z,113.30
2019-02-05T23:38:18.057Z,114.87
2019-02-05T23:40:49.467Z,126.00
2019-02-05T23:43:23.221Z,119.97
2019-02-05T23:46:01.317Z,109.80
2019-02-05T23:48:32.474Z,122.35
2019-02-05T23:51:04.472Z,117.90
2019-02-05T23:53:36.369Z,133.27
2019-02-05T23:56:09.393Z,131.67
2019-02-05T23:58:40.745Z,134.80
